Rumo A Pesca — CUOK — position and weather

sailwx.info

Track history (hours):
 
Tides and Currents Weather Stations Pressure Air Temp Water Temp Dewpoint Dewpoint Depression Visibility Wind Speed Wind Dir Waves Ship Positions

Rumo A Pesca

Last reported at 2018-Jun-23 08:53 UTC. Time now 2018-Jun-24 20:45 UTC.
Position N 41°14' W 008°44'.

Length 26 m.

Type: Fishing. MMSI: 263408570.

Date/timePositionNaut miles runAvg speedWind from/ knotsBaromVisibWave heightAir tempDewpointWater temp
2018-Jun-23 08:53N 41°14' W 008°44'4 9.9
2018-Jun-23 08:30N 41°11' W 008°42'1 1.0
2018-Jun-23 08:00N 41°11' W 008°42'0 0.0
2018-Jun-23 07:30N 41°11' W 008°42'0 0.0
2018-Jun-23 07:00N 41°11' W 008°42'1 1.7
2018-Jun-23 06:30N 41°10' W 008°43'5 0.6
2018-Jun-22 22:30N 41°09' W 008°49'510.9
2018-Jun-22 22:00N 41°10' W 008°42'1 1.2
2018-Jun-22 21:30N 41°11' W 008°42'0 0.0
2018-Jun-22 11:10N 41°11' W 008°42'0 0.0
2018-Jun-22 11:00N 41°11' W 008°42'0 0.0
2018-Jun-22 07:20N 41°11' W 008°42'3 8.1
2018-Jun-22 07:00N 41°10' W 008°45'2 0.2
2018-Jun-21 21:57N 41°08' W 008°43'3 6.6
2018-Jun-21 21:30N 41°11' W 008°42'0 0.0
2018-Jun-21 14:43N 41°11' W 008°42'0 0.0
2018-Jun-21 06:59N 41°11' W 008°42'0 0.0
2018-Jun-21 06:30N 41°11' W 008°42'0 0.6
2018-Jun-21 06:00N 41°11' W 008°42'3 0.4
2018-Jun-20 22:33N 41°08' W 008°43'011.6
2018-Jun-20 22:30N 41°08' W 008°43'3 5.8
2018-Jun-20 22:00N 41°11' W 008°42'0 0.0
2018-Jun-20 10:54N 41°11' W 008°42'0 0.0
2018-Jun-20 10:30N 41°11' W 008°42'4 0.3
2018-Jun-19 22:26N 41°09' W 008°46'4 9.6
2018-Jun-19 22:01N 41°11' W 008°42'3 0.1
2018-Jun-18 22:26N 41°08' W 008°44'3 7.8
2018-Jun-18 22:01N 41°11' W 008°42'0 0.0
2018-Jun-18 07:45N 41°11' W 008°42'1 3.2
2018-Jun-18 07:30N 41°10' W 008°42'3 0.4
2018-Jun-18 00:52N 41°09' W 008°46'3 8.8
2018-Jun-18 00:30N 41°11' W 008°42'0 0.0
2018-Jun-18 00:00N 41°11' W 008°42'0 0.0
2018-Jun-17 23:30N 41°11' W 008°42'0 0.2
2018-Jun-17 23:00N 41°11' W 008°42'0 0.0
2018-Jun-17 22:30N 41°11' W 008°42'0 0.0
2018-Jun-16 15:33N 41°11' W 008°42'0 0.1
2018-Jun-16 15:30N 41°11' W 008°42'2 0.1
2018-Jun-15 13:28N 41°12' W 008°44'2 3.7
2018-Jun-15 13:01N 41°11' W 008°42'0 0.0
2018-Jun-15 12:30N 41°11' W 008°42'0 0.0
2018-Jun-15 11:59N 41°11' W 008°42'0 0.0
2018-Jun-15 11:30N 41°11' W 008°42'0 0.0
2018-Jun-15 11:00N 41°11' W 008°42'0 0.0
2018-Jun-15 10:30N 41°11' W 008°42'0 0.0
2018-Jun-15 10:00N 41°11' W 008°42'0 0.0
2018-Jun-15 09:30N 41°11' W 008°42'5 0.5
2018-Jun-15 01:01N 41°15' W 008°45'2 8.6
2018-Jun-15 00:48N 41°13' W 008°44'2 8.3
2018-Jun-15 00:30N 41°11' W 008°43'1 1.6
2018-Jun-15 00:00N 41°11' W 008°42'0 0.0
2018-Jun-14 23:30N 41°11' W 008°42'0 0.0
2018-Jun-14 23:00N 41°11' W 008°42'0 0.0
2018-Jun-14 07:30N 41°11' W 008°42'3 6.4
2018-Jun-14 07:00N 41°08' W 008°43'1 0.2
2018-Jun-14 00:53N 41°08' W 008°45'3 9.0
2018-Jun-14 00:30N 41°11' W 008°42'0 0.1
2018-Jun-14 00:00N 41°11' W 008°42'0 0.0
2018-Jun-13 23:30N 41°11' W 008°42'0 0.0
2018-Jun-13 23:00N 41°11' W 008°42'0 0.0
2018-Jun-13 22:30N 41°11' W 008°42'0 0.0
2018-Jun-13 22:00N 41°11' W 008°42'  
Track history (hours):
 
Tides and Currents Weather Stations Pressure Air Temp Water Temp Dewpoint Dewpoint Depression Visibility Wind Speed Wind Dir Waves Ship Positions

Rumo A Pesca

Last reported at 2018-Jun-23 08:53 UTC. Time now 2018-Jun-24 20:45 UTC.
Position N 41°14' W 008°44'.

Length 26 m.

Type: Fishing. MMSI: 263408570.

Date/timePositionNaut miles runAvg speedWind from/ knotsBaromVisibWave heightAir tempDewpointWater temp
2018-Jun-23 08:53N 41°14' W 008°44'4 9.9
2018-Jun-23 08:30N 41°11' W 008°42'1 1.0
2018-Jun-23 08:00N 41°11' W 008°42'0 0.0
2018-Jun-23 07:30N 41°11' W 008°42'0 0.0
2018-Jun-23 07:00N 41°11' W 008°42'1 1.7
2018-Jun-23 06:30N 41°10' W 008°43'5 0.6
2018-Jun-22 22:30N 41°09' W 008°49'510.9
2018-Jun-22 22:00N 41°10' W 008°42'1 1.2
2018-Jun-22 21:30N 41°11' W 008°42'0 0.0
2018-Jun-22 11:10N 41°11' W 008°42'0 0.0
2018-Jun-22 11:00N 41°11' W 008°42'0 0.0
2018-Jun-22 07:20N 41°11' W 008°42'3 8.1
2018-Jun-22 07:00N 41°10' W 008°45'2 0.2
2018-Jun-21 21:57N 41°08' W 008°43'3 6.6
2018-Jun-21 21:30N 41°11' W 008°42'0 0.0
2018-Jun-21 14:43N 41°11' W 008°42'0 0.0
2018-Jun-21 06:59N 41°11' W 008°42'0 0.0
2018-Jun-21 06:30N 41°11' W 008°42'0 0.6
2018-Jun-21 06:00N 41°11' W 008°42'3 0.4
2018-Jun-20 22:33N 41°08' W 008°43'011.6
2018-Jun-20 22:30N 41°08' W 008°43'3 5.8
2018-Jun-20 22:00N 41°11' W 008°42'0 0.0
2018-Jun-20 10:54N 41°11' W 008°42'0 0.0
2018-Jun-20 10:30N 41°11' W 008°42'4 0.3
2018-Jun-19 22:26N 41°09' W 008°46'4 9.6
2018-Jun-19 22:01N 41°11' W 008°42'3 0.1
2018-Jun-18 22:26N 41°08' W 008°44'3 7.8
2018-Jun-18 22:01N 41°11' W 008°42'0 0.0
2018-Jun-18 07:45N 41°11' W 008°42'1 3.2
2018-Jun-18 07:30N 41°10' W 008°42'3 0.4
2018-Jun-18 00:52N 41°09' W 008°46'3 8.8
2018-Jun-18 00:30N 41°11' W 008°42'0 0.0
2018-Jun-18 00:00N 41°11' W 008°42'0 0.0
2018-Jun-17 23:30N 41°11' W 008°42'0 0.2
2018-Jun-17 23:00N 41°11' W 008°42'0 0.0
2018-Jun-17 22:30N 41°11' W 008°42'0 0.0
2018-Jun-16 15:33N 41°11' W 008°42'0 0.1
2018-Jun-16 15:30N 41°11' W 008°42'2 0.1
2018-Jun-15 13:28N 41°12' W 008°44'2 3.7
2018-Jun-15 13:01N 41°11' W 008°42'0 0.0
2018-Jun-15 12:30N 41°11' W 008°42'0 0.0
2018-Jun-15 11:59N 41°11' W 008°42'0 0.0
2018-Jun-15 11:30N 41°11' W 008°42'0 0.0
2018-Jun-15 11:00N 41°11' W 008°42'0 0.0
2018-Jun-15 10:30N 41°11' W 008°42'0 0.0
2018-Jun-15 10:00N 41°11' W 008°42'0 0.0
2018-Jun-15 09:30N 41°11' W 008°42'5 0.5
2018-Jun-15 01:01N 41°15' W 008°45'2 8.6
2018-Jun-15 00:48N 41°13' W 008°44'2 8.3
2018-Jun-15 00:30N 41°11' W 008°43'1 1.6
2018-Jun-15 00:00N 41°11' W 008°42'0 0.0
2018-Jun-14 23:30N 41°11' W 008°42'0 0.0
2018-Jun-14 23:00N 41°11' W 008°42'0 0.0
2018-Jun-14 07:30N 41°11' W 008°42'3 6.4
2018-Jun-14 07:00N 41°08' W 008°43'1 0.2
2018-Jun-14 00:53N 41°08' W 008°45'3 9.0
2018-Jun-14 00:30N 41°11' W 008°42'0 0.1
2018-Jun-14 00:00N 41°11' W 008°42'0 0.0
2018-Jun-13 23:30N 41°11' W 008°42'0 0.0
2018-Jun-13 23:00N 41°11' W 008°42'0 0.0
2018-Jun-13 22:30N 41°11' W 008°42'0 0.0
2018-Jun-13 22:00N 41°11' W 008°42'  

Dump ship's entire track history